createdAt,value
2023-02-01T00:00:31.926Z,2.4
2023-02-01T00:04:37.363Z,2.3
2023-02-01T00:06:35.730Z,2.3
2023-02-01T00:10:37.728Z,2.3
2023-02-01T00:12:36.491Z,2.3
2023-02-01T00:20:38.527Z,2.3
2023-02-01T00:22:31.928Z,2.3
2023-02-01T00:24:31.929Z,2.3
2023-02-01T00:26:38.800Z,2.3
2023-02-01T00:28:34.108Z,2.3
2023-02-01T00:30:31.972Z,2.3
2023-02-01T00:32:38.800Z,2.3
2023-02-01T00:34:31.917Z,2.3
2023-02-01T00:36:31.913Z,2.3
2023-02-01T00:40:34.186Z,2.3
2023-02-01T00:42:31.940Z,2.2
2023-02-01T00:46:34.139Z,2.2
2023-02-01T00:48:31.909Z,2.2
2023-02-01T00:52:35.753Z,2.2
2023-02-01T00:54:31.931Z,2.2
2023-02-01T00:57:46.840Z,2.2
2023-02-01T00:58:34.230Z,2.2
2023-02-01T01:00:31.964Z,2.2
2023-02-01T01:04:31.937Z,2.2
2023-02-01T01:06:31.950Z,2.2
2023-02-01T01:08:36.786Z,2.2
2023-02-01T01:10:35.446Z,2.2
2023-02-01T01:12:31.891Z,2.2
2023-02-01T01:14:37.509Z,2.2
2023-02-01T01:16:37.616Z,2.2
2023-02-01T01:18:31.903Z,2.2
2023-02-01T01:20:37.741Z,2.3
2023-02-01T01:22:35.966Z,2.2
2023-02-01T01:24:35.871Z,2.3
2023-02-01T01:26:38.173Z,2.3
2023-02-01T01:28:31.893Z,2.3
2023-02-01T01:30:36.440Z,2.3
2023-02-01T01:34:35.724Z,2.2
2023-02-01T01:36:34.505Z,2.3
2023-02-01T01:40:31.928Z,2.3
2023-02-01T01:42:38.218Z,2.3
2023-02-01T01:46:38.162Z,2.3
2023-02-01T01:48:31.974Z,2.3
2023-02-01T01:50:38.698Z,2.3
2023-02-01T01:52:36.838Z,2.3
2023-02-01T01:54:31.906Z,2.2
2023-02-01T01:58:35.095Z,2.3
2023-02-01T02:00:31.948Z,2.3
2023-02-01T02:02:38.171Z,2.4
2023-02-01T02:04:31.892Z,2.4
2023-02-01T02:06:31.905Z,2.4
2023-02-01T02:08:38.490Z,2.3
2023-02-01T02:10:31.927Z,2.4
2023-02-01T02:12:31.910Z,2.3
2023-02-01T02:16:35.530Z,2.4
2023-02-01T02:18:31.919Z,2.3
2023-02-01T02:22:31.968Z,2.3
2023-02-01T02:24:31.947Z,2.3
2023-02-01T02:28:35.929Z,2.3
2023-02-01T02:30:31.954Z,2.3
2023-02-01T02:34:31.919Z,2.3
2023-02-01T02:36:31.918Z,2.3
2023-02-01T02:38:38.590Z,2.3
2023-02-01T02:40:35.491Z,2.3
2023-02-01T02:42:31.916Z,2.3
2023-02-01T02:44:35.656Z,2.3
2023-02-01T02:46:31.949Z,2.3
2023-02-01T02:48:31.907Z,2.3
2023-02-01T02:50:38.456Z,2.3
2023-02-01T02:52:31.941Z,2.3
2023-02-01T02:56:37.678Z,2.3
2023-02-01T02:58:31.965Z,2.3
2023-02-01T03:00:35.954Z,2.2
2023-02-01T03:04:34.088Z,2.2
2023-02-01T03:06:32.492Z,2.2
2023-02-01T03:10:31.946Z,2.3
2023-02-01T03:12:31.937Z,2.2
2023-02-01T03:14:36.786Z,2.2
2023-02-01T03:16:32.028Z,2.3
2023-02-01T03:18:35.010Z,2.3
2023-02-01T03:22:31.980Z,2.2
2023-02-01T03:24:31.917Z,2.3
2023-02-01T03:28:31.927Z,2.3
2023-02-01T03:30:31.921Z,2.3
2023-02-01T03:34:31.923Z,2.3
2023-02-01T03:36:31.944Z,2.3
2023-02-01T03:38:38.036Z,2.3
2023-02-01T03:40:31.902Z,2.4
2023-02-01T03:44:38.538Z,2.3
2023-02-01T03:46:32.059Z,2.4
2023-02-01T03:48:31.919Z,2.4
2023-02-01T03:52:35.549Z,2.4
2023-02-01T03:54:31.905Z,2.4
2023-02-01T03:58:31.927Z,2.4
2023-02-01T04:00:31.969Z,2.4
2023-02-01T04:02:38.606Z,2.5
2023-02-01T04:06:32.056Z,2.4
2023-02-01T04:10:31.975Z,2.5
2023-02-01T04:12:32.369Z,2.5
2023-02-01T04:14:38.286Z,2.5
2023-02-01T04:16:32.048Z,2.5
2023-02-01T04:18:38.445Z,2.5
2023-02-01T04:20:37.950Z,2.6
2023-02-01T04:22:34.209Z,2.5
2023-02-01T04:24:35.652Z,2.6
2023-02-01T04:26:38.519Z,2.5
2023-02-01T04:28:31.987Z,2.6
2023-02-01T04:30:32.037Z,2.6
2023-02-01T04:34:31.969Z,2.6
2023-02-01T04:36:34.202Z,2.7
2023-02-01T04:38:38.143Z,2.6
2023-02-01T04:40:35.733Z,2.6
2023-02-01T04:42:32.033Z,2.6
2023-02-01T04:44:38.239Z,2.6
2023-02-01T04:48:32.043Z,2.6
2023-02-01T04:50:32.333Z,2.7
2023-02-01T04:52:31.968Z,2.6
2023-02-01T04:54:37.715Z,2.7
2023-02-01T04:58:31.961Z,2.7
2023-02-01T05:00:31.935Z,2.7
2023-02-01T05:02:37.612Z,2.7
2023-02-01T05:04:31.972Z,2.7
2023-02-01T05:06:32.308Z,2.8
2023-02-01T05:08:34.242Z,2.7
2023-02-01T05:12:33.745Z,2.7
2023-02-01T05:16:31.947Z,2.6
2023-02-01T05:18:33.250Z,2.6
2023-02-01T05:20:38.495Z,2.7
2023-02-01T05:22:38.828Z,2.6
2023-02-01T05:26:34.271Z,2.6
2023-02-01T05:28:31.976Z,2.6
2023-02-01T05:30:31.950Z,2.6
2023-02-01T05:32:36.573Z,2.6
2023-02-01T05:34:35.483Z,2.6
2023-02-01T05:36:32.005Z,2.6
2023-02-01T05:40:32.021Z,2.5
2023-02-01T05:48:10.497Z,2.6
2023-02-01T05:50:09.565Z,2.6
2023-02-01T05:52:09.802Z,2.7
2023-02-01T05:54:09.151Z,2.7
2023-02-01T05:56:09.527Z,2.7
2023-02-01T05:58:09.051Z,2.7
2023-02-01T06:00:09.084Z,2.7
2023-02-01T06:02:10.293Z,2.8
2023-02-01T06:04:09.810Z,2.8
2023-02-01T06:06:09.466Z,2.8
2023-02-01T06:08:09.537Z,2.8
2023-02-01T06:12:09.073Z,2.8
2023-02-01T06:14:09.561Z,2.8
2023-02-01T06:16:09.159Z,2.8
2023-02-01T06:18:09.403Z,2.8
2023-02-01T06:22:09.449Z,2.8
2023-02-01T06:24:09.057Z,2.8
2023-02-01T06:26:09.542Z,2.8
2023-02-01T06:28:09.434Z,2.8
2023-02-01T06:30:09.423Z,2.8
2023-02-01T06:32:09.525Z,2.8
2023-02-01T06:34:09.803Z,2.8
2023-02-01T06:36:09.128Z,2.8
2023-02-01T06:38:09.677Z,2.8
2023-02-01T06:40:10.401Z,2.8
2023-02-01T06:42:09.047Z,2.8
2023-02-01T06:44:09.532Z,2.8
2023-02-01T06:46:09.243Z,2.8
2023-02-01T06:50:09.896Z,2.8
2023-02-01T06:52:09.428Z,2.8
2023-02-01T06:54:10.514Z,2.8
2023-02-01T06:56:12.208Z,2.8
2023-02-01T06:58:12.046Z,2.8
2023-02-01T07:00:09.413Z,2.8
2023-02-01T07:04:09.069Z,2.8
2023-02-01T07:06:10.505Z,2.9
2023-02-01T07:10:09.091Z,3
2023-02-01T07:12:09.558Z,3
2023-02-01T07:14:09.525Z,2.9
2023-02-01T07:16:09.103Z,3
2023-02-01T07:18:09.079Z,3
2023-02-01T07:20:09.681Z,3
2023-02-01T07:22:09.064Z,3.1
2023-02-01T07:24:09.077Z,3
2023-02-01T07:26:09.705Z,3
2023-02-01T07:28:09.064Z,3.1
2023-02-01T07:32:09.585Z,3.1
2023-02-01T07:34:09.063Z,3.1
2023-02-01T07:36:10.475Z,3.1
2023-02-01T07:38:09.564Z,3.1
2023-02-01T07:40:09.059Z,3.1
2023-02-01T07:42:11.831Z,3.1
2023-02-01T07:44:09.527Z,3.1
2023-02-01T07:46:10.400Z,3.1
2023-02-01T07:48:09.556Z,3.1
2023-02-01T07:50:09.563Z,3.1
2023-02-01T07:52:09.070Z,3.1
2023-02-01T07:54:11.971Z,3.1
2023-02-01T07:56:09.528Z,3.1
2023-02-01T07:58:09.063Z,3.1
2023-02-01T08:00:09.084Z,3.1
2023-02-01T08:02:09.600Z,3.2
2023-02-01T08:04:09.068Z,3.3
2023-02-01T08:06:09.144Z,3.2
2023-02-01T08:08:09.977Z,3.3
2023-02-01T08:10:09.070Z,3.2
2023-02-01T08:12:09.526Z,3.3
2023-02-01T08:14:11.960Z,3.2
2023-02-01T08:16:09.101Z,3.2
2023-02-01T08:18:09.583Z,3.2
2023-02-01T08:20:09.543Z,3.3
2023-02-01T08:22:10.399Z,3.3
2023-02-01T08:24:09.111Z,3.2
2023-02-01T08:26:09.531Z,3.2
2023-02-01T08:28:10.402Z,3.3
2023-02-01T08:30:09.121Z,3.3
2023-02-01T08:32:10.011Z,3.3
2023-02-01T08:34:09.071Z,3.3
2023-02-01T08:36:10.752Z,3.3
2023-02-01T08:38:09.524Z,3.3
2023-02-01T08:40:09.092Z,3.3
2023-02-01T08:44:11.668Z,3.4
2023-02-01T08:46:09.169Z,3.3
2023-02-01T08:48:09.096Z,3.3
2023-02-01T08:50:09.544Z,3.3
2023-02-01T08:52:15.622Z,3.3
2023-02-01T08:56:09.552Z,3.5
2023-02-01T08:58:09.081Z,3.5
2023-02-01T09:00:09.462Z,3.4
2023-02-01T09:02:09.558Z,3.4
2023-02-01T09:04:09.142Z,3.4
2023-02-01T09:06:09.526Z,3.5
2023-02-01T09:08:11.724Z,3.5
2023-02-01T09:10:09.091Z,3.5
2023-02-01T09:12:09.085Z,3.4
2023-02-01T09:14:09.572Z,3.4
2023-02-01T09:16:09.152Z,3.4
2023-02-01T09:18:09.449Z,3.3
2023-02-01T09:20:09.991Z,3.4
2023-02-01T09:22:09.077Z,3.4
2023-02-01T09:24:10.456Z,3.4
2023-02-01T09:26:09.934Z,3.4
2023-02-01T09:28:09.268Z,3.4
2023-02-01T09:30:09.082Z,3.4
2023-02-01T09:32:09.745Z,3.4
2023-02-01T09:34:11.959Z,3.4
2023-02-01T09:36:09.139Z,3.5
2023-02-01T09:38:09.533Z,3.5
2023-02-01T09:40:11.680Z,3.5
2023-02-01T09:42:09.108Z,3.5
2023-02-01T09:46:09.163Z,3.7
2023-02-01T09:48:10.486Z,3.7
2023-02-01T09:50:09.575Z,3.8
2023-02-01T09:52:09.118Z,3.7
2023-02-01T09:54:09.442Z,3.7
2023-02-01T09:56:09.580Z,3.7
2023-02-01T09:58:09.079Z,3.7
2023-02-01T10:00:09.129Z,3.7
2023-02-01T10:02:09.533Z,3.7
2023-02-01T10:04:09.083Z,3.8
2023-02-01T10:06:09.193Z,3.9
2023-02-01T10:08:09.559Z,3.8
2023-02-01T10:10:09.835Z,3.9
2023-02-01T10:12:09.116Z,3.9
2023-02-01T10:14:10.434Z,3.9
2023-02-01T10:16:12.414Z,3.9
2023-02-01T10:18:09.155Z,3.9
2023-02-01T10:20:09.566Z,3.9
2023-02-01T10:24:17.244Z,4
2023-02-01T10:26:09.584Z,4
2023-02-01T10:28:09.438Z,4
2023-02-01T10:30:09.429Z,4
2023-02-01T10:32:09.634Z,4
2023-02-01T10:34:09.122Z,4
2023-02-01T10:36:09.167Z,4
2023-02-01T10:38:09.578Z,4
2023-02-01T10:40:09.085Z,4
2023-02-01T10:42:12.718Z,4
2023-02-01T10:44:09.559Z,4
2023-02-01T10:46:09.117Z,4
2023-02-01T10:48:09.086Z,4
2023-02-01T10:50:11.667Z,4
2023-02-01T10:52:10.399Z,3.9
2023-02-01T10:54:09.115Z,3.9
2023-02-01T10:56:09.596Z,4
2023-02-01T10:58:09.118Z,4
2023-02-01T11:00:09.091Z,3.9
2023-02-01T11:02:09.979Z,3.9
2023-02-01T11:04:09.081Z,3.9
2023-02-01T11:06:09.228Z,3.9
2023-02-01T11:08:09.576Z,3.9
2023-02-01T11:10:09.128Z,3.9
2023-02-01T11:12:09.114Z,3.8
2023-02-01T11:14:09.571Z,3.8
2023-02-01T11:16:09.131Z,3.8
2023-02-01T11:18:09.095Z,3.8
2023-02-01T11:20:12.070Z,3.8
2023-02-01T11:22:09.127Z,3.8
2023-02-01T11:24:09.108Z,3.8
2023-02-01T11:26:10.020Z,3.7
2023-02-01T11:28:09.115Z,3.6
2023-02-01T11:30:09.538Z,3.7
2023-02-01T11:32:12.344Z,3.7
2023-02-01T11:34:09.461Z,3.7
2023-02-01T11:36:09.163Z,3.7
2023-02-01T11:38:09.533Z,3.6
2023-02-01T11:40:09.828Z,3.6
2023-02-01T11:42:12.395Z,3.6
2023-02-01T11:44:10.021Z,3.6
2023-02-01T11:46:11.960Z,3.6
2023-02-01T11:48:10.100Z,3.6
2023-02-01T11:50:10.339Z,3.6
2023-02-01T11:52:12.482Z,3.6
2023-02-01T11:54:09.085Z,3.6
2023-02-01T11:58:09.108Z,3.7
2023-02-01T12:00:12.389Z,3.7
2023-02-01T12:02:10.466Z,3.7
2023-02-01T12:04:09.141Z,3.7
2023-02-01T12:06:11.653Z,3.7
2023-02-01T12:08:11.757Z,3.7
2023-02-01T12:10:09.109Z,3.7
2023-02-01T12:12:09.639Z,3.7
2023-02-01T12:14:09.555Z,3.7
2023-02-01T12:16:09.615Z,3.7
2023-02-01T12:22:09.093Z,3.7
2023-02-01T12:26:09.900Z,3.7
2023-02-01T12:30:12.399Z,3.6
2023-02-01T12:32:09.844Z,3.6
2023-02-01T12:34:09.105Z,3.6
2023-02-01T12:36:09.123Z,3.6
2023-02-01T12:38:09.976Z,3.6
2023-02-01T12:40:09.113Z,3.7
2023-02-01T12:42:09.574Z,3.7
2023-02-01T12:44:09.552Z,3.7
2023-02-01T12:46:09.864Z,3.7
2023-02-01T12:48:09.102Z,3.7
2023-02-01T12:50:09.549Z,3.7
2023-02-01T12:52:09.150Z,3.7
2023-02-01T12:54:09.123Z,3.7
2023-02-01T12:56:09.546Z,3.7
2023-02-01T12:58:09.110Z,3.7
2023-02-01T13:00:09.471Z,3.7
2023-02-01T13:02:09.653Z,3.7
2023-02-01T13:04:09.107Z,3.8
2023-02-01T13:06:09.154Z,3.8
2023-02-01T13:08:09.588Z,3.8
2023-02-01T13:10:09.113Z,3.8
2023-02-01T13:12:09.124Z,3.8
2023-02-01T13:14:09.601Z,3.9
2023-02-01T13:16:09.110Z,3.9
2023-02-01T13:18:09.549Z,4
2023-02-01T13:20:12.265Z,3.9
2023-02-01T13:22:09.122Z,3.9
2023-02-01T13:24:09.518Z,3.8
2023-02-01T13:26:09.604Z,3.9
2023-02-01T13:28:11.981Z,3.9
2023-02-01T13:30:09.137Z,3.9
2023-02-01T13:34:11.731Z,3.9
2023-02-01T13:36:09.141Z,3.8
2023-02-01T13:38:11.953Z,3.8
2023-02-01T13:40:09.153Z,3.9
2023-02-01T13:42:09.109Z,3.8
2023-02-01T13:44:09.704Z,3.9
2023-02-01T13:46:09.202Z,3.9
2023-02-01T13:48:09.562Z,3.9
2023-02-01T13:50:10.086Z,3.9
2023-02-01T13:52:09.877Z,3.9
2023-02-01T13:54:09.111Z,3.9
2023-02-01T13:56:09.771Z,3.9
2023-02-01T13:58:09.496Z,4
2023-02-01T14:02:09.581Z,3.9
2023-02-01T14:04:09.824Z,3.9
2023-02-01T14:06:09.173Z,3.9
2023-02-01T14:08:09.555Z,3.9
2023-02-01T14:10:09.206Z,3.9
2023-02-01T14:12:09.136Z,4
2023-02-01T14:14:09.568Z,3.9
2023-02-01T14:16:09.177Z,3.9
2023-02-01T14:18:12.387Z,3.9
2023-02-01T14:20:09.691Z,4
2023-02-01T14:22:09.379Z,4
2023-02-01T14:26:09.809Z,4
2023-02-01T14:28:09.122Z,4
2023-02-01T14:30:09.259Z,4
2023-02-01T14:32:09.618Z,4
2023-02-01T14:34:09.124Z,4
2023-02-01T14:36:09.244Z,4
2023-02-01T14:38:09.595Z,3.9
2023-02-01T14:40:09.178Z,4
2023-02-01T14:42:09.138Z,4
2023-02-01T14:44:10.218Z,3.9
2023-02-01T14:46:09.511Z,3.9
2023-02-01T14:48:09.253Z,3.9
2023-02-01T14:50:10.045Z,3.9
2023-02-01T14:52:09.143Z,3.9
2023-02-01T14:54:09.136Z,3.8
2023-02-01T15:00:09.264Z,3.8
2023-02-01T15:04:09.131Z,3.8
2023-02-01T15:06:09.338Z,3.8
2023-02-01T15:08:09.637Z,3.9
2023-02-01T15:10:09.161Z,3.8
2023-02-01T15:12:09.126Z,3.9
2023-02-01T15:14:09.960Z,3.9
2023-02-01T15:16:09.187Z,3.8
2023-02-01T15:18:09.113Z,3.9
2023-02-01T15:20:10.360Z,3.8
2023-02-01T15:22:09.516Z,3.8
2023-02-01T15:24:09.474Z,3.9
2023-02-01T15:26:09.608Z,3.9
2023-02-01T15:28:09.560Z,3.9
2023-02-01T15:30:09.899Z,3.8
2023-02-01T15:32:09.717Z,3.8
2023-02-01T15:34:09.545Z,3.9
2023-02-01T15:36:09.599Z,3.9
2023-02-01T15:38:09.554Z,3.9
2023-02-01T15:40:09.123Z,3.8
2023-02-01T15:42:09.142Z,3.9
2023-02-01T15:46:09.497Z,3.9
2023-02-01T15:48:09.125Z,3.9
2023-02-01T15:50:10.057Z,3.8
2023-02-01T15:52:09.577Z,3.8
2023-02-01T15:54:09.312Z,3.9
2023-02-01T15:56:09.618Z,3.9
2023-02-01T15:58:11.733Z,3.9
2023-02-01T16:00:09.489Z,3.9
2023-02-01T16:04:09.125Z,3.8
2023-02-01T16:06:09.235Z,3.8
2023-02-01T16:08:09.594Z,3.9
2023-02-01T16:10:09.123Z,3.8
2023-02-01T16:12:09.167Z,3.8
2023-02-01T16:14:10.063Z,3.8
2023-02-01T16:16:11.732Z,3.8
2023-02-01T16:18:09.515Z,3.8
2023-02-01T16:20:09.599Z,3.8
2023-02-01T16:22:09.481Z,3.8
2023-02-01T16:24:09.161Z,3.8
2023-02-01T16:26:09.608Z,3.8
2023-02-01T16:28:09.178Z,3.8
2023-02-01T16:30:09.141Z,3.8
2023-02-01T16:32:09.586Z,3.7
2023-02-01T16:34:09.133Z,3.8
2023-02-01T16:36:09.216Z,3.7
2023-02-01T16:40:09.486Z,3.7
2023-02-01T16:42:09.509Z,3.7
2023-02-01T16:44:09.601Z,3.7
2023-02-01T16:46:09.146Z,3.6
2023-02-01T16:48:09.125Z,3.5
2023-02-01T16:50:17.713Z,3.6
2023-02-01T16:52:09.123Z,3.6
2023-02-01T16:54:09.136Z,3.7
2023-02-01T16:56:09.690Z,3.7
2023-02-01T16:58:09.124Z,3.7
2023-02-01T17:00:23.454Z,3.7
2023-02-01T17:02:09.627Z,3.6
2023-02-01T17:04:09.989Z,3.7
2023-02-01T17:06:10.539Z,3.7
2023-02-01T17:08:09.596Z,3.7
2023-02-01T17:10:09.143Z,3.7
2023-02-01T17:12:09.567Z,3.7
2023-02-01T17:14:09.603Z,3.7
2023-02-01T17:16:09.254Z,3.7
2023-02-01T17:18:09.495Z,3.7
2023-02-01T17:20:09.595Z,3.7
2023-02-01T17:22:09.376Z,3.6
2023-02-01T17:24:09.140Z,3.6
2023-02-01T17:26:10.491Z,3.6
2023-02-01T17:28:09.153Z,3.6
2023-02-01T17:30:09.125Z,3.7
2023-02-01T17:32:10.222Z,3.7
2023-02-01T17:34:09.899Z,3.6
2023-02-01T17:36:10.613Z,3.6
2023-02-01T17:38:09.709Z,3.6
2023-02-01T17:40:09.123Z,3.6
2023-02-01T17:42:09.264Z,3.6
2023-02-01T17:44:09.714Z,3.6
2023-02-01T17:48:09.515Z,3.6
2023-02-01T17:50:09.610Z,3.7
2023-02-01T17:52:09.136Z,3.6
2023-02-01T17:54:09.129Z,3.7
2023-02-01T17:56:09.641Z,3.7
2023-02-01T17:58:09.713Z,3.7
2023-02-01T18:00:09.131Z,3.7
2023-02-01T18:02:10.287Z,3.7
2023-02-01T18:04:09.127Z,3.7
2023-02-01T18:06:09.264Z,3.7
2023-02-01T18:10:12.298Z,3.7
2023-02-01T18:12:09.498Z,3.8
2023-02-01T18:14:09.595Z,3.7
2023-02-01T18:16:09.153Z,3.8
2023-02-01T18:18:09.130Z,3.8
2023-02-01T18:20:10.067Z,3.7
2023-02-01T18:22:09.140Z,3.8
2023-02-01T18:24:09.149Z,3.8
2023-02-01T18:26:09.709Z,3.7
2023-02-01T18:28:09.168Z,3.7
2023-02-01T18:30:09.197Z,3.7
2023-02-01T18:32:09.639Z,3.8
2023-02-01T18:34:09.253Z,3.8
2023-02-01T18:36:09.161Z,3.8
2023-02-01T18:41:11.085Z,3.7
2023-02-01T18:43:09.397Z,3.8
2023-02-01T18:45:09.534Z,3.8
2023-02-01T18:47:11.960Z,3.8
2023-02-01T18:49:09.606Z,3.8
2023-02-01T18:51:14.162Z,3.9
2023-02-01T18:53:09.383Z,3.8
2023-02-01T18:55:09.502Z,3.8
2023-02-01T18:57:09.666Z,3.7
2023-02-01T18:59:11.187Z,3.8
2023-02-01T19:01:09.608Z,3.8
2023-02-01T19:03:12.702Z,3.8
2023-02-01T19:05:15.362Z,3.8
2023-02-01T19:07:11.541Z,3.8
2023-02-01T19:09:15.238Z,3.8
2023-02-01T19:11:10.663Z,3.9
2023-02-01T19:13:11.849Z,3.8
2023-02-01T19:15:12.003Z,3.8
2023-02-01T19:17:14.814Z,3.9
2023-02-01T19:19:09.504Z,3.9
2023-02-01T19:21:14.536Z,3.8
2023-02-01T19:23:14.972Z,3.9
2023-02-01T19:25:09.538Z,3.9
2023-02-01T19:27:10.793Z,3.9
2023-02-01T19:29:10.681Z,3.9
2023-02-01T19:31:09.663Z,3.9
2023-02-01T19:33:13.257Z,3.8
2023-02-01T19:35:09.521Z,3.9
2023-02-01T19:37:16.086Z,3.8
2023-02-01T19:39:09.587Z,3.8
2023-02-01T19:41:12.109Z,3.8
2023-02-01T19:43:13.153Z,3.8
2023-02-01T19:45:15.182Z,3.8
2023-02-01T19:47:10.901Z,3.8
2023-02-01T19:49:10.681Z,3.8
2023-02-01T19:51:09.579Z,3.8
2023-02-01T19:53:09.521Z,3.8
2023-02-01T19:55:13.333Z,3.8
2023-02-01T19:57:14.598Z,3.8
2023-02-01T19:59:15.076Z,3.8
2023-02-01T20:01:14.944Z,3.8
2023-02-01T20:03:10.417Z,3.8
2023-02-01T20:05:08.688Z,3.7
2023-02-01T20:07:12.391Z,3.8
2023-02-01T20:09:08.696Z,3.8
2023-02-01T20:11:12.105Z,3.7
2023-02-01T20:13:13.896Z,3.7
2023-02-01T20:15:08.682Z,3.8
2023-02-01T20:17:10.135Z,3.7
2023-02-01T20:19:08.658Z,3.7
2023-02-01T20:21:12.100Z,3.7
2023-02-01T20:23:10.214Z,3.7
2023-02-01T20:25:14.024Z,3.7
2023-02-01T20:27:13.578Z,3.6
2023-02-01T20:29:12.839Z,3.7
2023-02-01T20:31:14.189Z,3.7
2023-02-01T20:33:14.832Z,3.6
2023-02-01T20:35:09.419Z,3.7
2023-02-01T20:37:15.327Z,3.7
2023-02-01T20:39:09.550Z,3.7
2023-02-01T20:41:09.683Z,3.7
2023-02-01T20:43:09.553Z,3.7
2023-02-01T20:45:12.376Z,3.7
2023-02-01T20:47:15.156Z,3.7
2023-02-01T20:49:14.872Z,3.7
2023-02-01T20:51:09.585Z,3.7
2023-02-01T20:53:22.428Z,3.6
2023-02-01T20:55:11.434Z,3.7
2023-02-01T20:57:14.785Z,3.6
2023-02-01T20:59:09.571Z,3.7
2023-02-01T21:01:11.265Z,3.7
2023-02-01T21:03:09.574Z,3.7
2023-02-01T21:05:09.570Z,3.6
2023-02-01T21:07:09.596Z,3.7
2023-02-01T21:09:12.954Z,3.6
2023-02-01T21:11:14.815Z,3.6
2023-02-01T21:13:09.595Z,3.6
2023-02-01T21:15:14.826Z,3.6
2023-02-01T21:17:10.948Z,3.6
2023-02-01T21:19:12.309Z,3.6
2023-02-01T21:21:15.264Z,3.6
2023-02-01T21:23:09.510Z,3.5
2023-02-01T21:25:12.787Z,3.5
2023-02-01T21:27:14.782Z,3.5
2023-02-01T21:29:10.392Z,3.5
2023-02-01T21:31:10.774Z,3.5
2023-02-01T21:35:09.597Z,3.5
2023-02-01T21:37:14.396Z,3.6
2023-02-01T21:39:13.632Z,3.6
2023-02-01T21:41:14.828Z,3.5
2023-02-01T21:43:13.423Z,3.6
2023-02-01T21:45:16.109Z,3.6
2023-02-01T21:47:09.573Z,3.6
2023-02-01T21:49:09.604Z,3.6
2023-02-01T21:51:16.559Z,3.6
2023-02-01T21:53:09.676Z,3.5
2023-02-01T21:55:14.039Z,3.5
2023-02-01T21:57:10.722Z,3.6
2023-02-01T21:59:16.346Z,3.5
2023-02-01T22:01:15.471Z,3.5
2023-02-01T22:03:13.570Z,3.5
2023-02-01T22:05:16.797Z,3.4
2023-02-01T22:07:09.604Z,3.4
2023-02-01T22:09:09.584Z,3.4
2023-02-01T22:11:09.602Z,3.5
2023-02-01T22:13:13.115Z,3.4
2023-02-01T22:15:15.207Z,3.4
2023-02-01T22:17:09.586Z,3.4
2023-02-01T22:19:16.158Z,3.4
2023-02-01T22:23:09.676Z,3.4
2023-02-01T22:27:13.134Z,3.3
2023-02-01T22:29:14.731Z,3.3
2023-02-01T22:31:14.233Z,3.4
2023-02-01T22:33:12.704Z,3.3
2023-02-01T22:35:09.586Z,3.3
2023-02-01T22:37:14.056Z,3.3
2023-02-01T22:39:13.809Z,3.2
2023-02-01T22:41:09.587Z,3.2
2023-02-01T22:43:09.581Z,3.2
2023-02-01T22:45:13.009Z,3.1
2023-02-01T22:47:09.639Z,3.1
2023-02-01T22:49:09.587Z,3.1
2023-02-01T22:51:09.623Z,3.1
2023-02-01T22:53:09.569Z,3.1
2023-02-01T22:55:14.347Z,3.1
2023-02-01T22:57:09.602Z,3.1
2023-02-01T22:59:09.669Z,3
2023-02-01T23:01:09.852Z,3.1
2023-02-01T23:03:12.920Z,3
2023-02-01T23:05:14.561Z,3
2023-02-01T23:07:09.566Z,3
2023-02-01T23:09:09.617Z,3
2023-02-01T23:11:14.055Z,3
2023-02-01T23:13:09.547Z,3
2023-02-01T23:15:10.931Z,3
2023-02-01T23:17:12.030Z,3
2023-02-01T23:19:09.614Z,3
2023-02-01T23:21:14.553Z,2.9
2023-02-01T23:23:14.103Z,3
2023-02-01T23:25:11.610Z,3
2023-02-01T23:27:10.685Z,3
2023-02-01T23:29:15.256Z,3
2023-02-01T23:31:13.153Z,3.1
2023-02-01T23:33:09.569Z,3
2023-02-01T23:35:09.578Z,3
2023-02-01T23:37:09.565Z,3
2023-02-01T23:39:12.425Z,3
2023-02-01T23:41:11.535Z,3.1
2023-02-01T23:43:09.565Z,3.1
2023-02-01T23:45:11.452Z,3.1
2023-02-01T23:47:13.281Z,3.1
2023-02-01T23:49:13.630Z,3.1
2023-02-01T23:51:09.576Z,3.1
2023-02-01T23:53:15.433Z,3.2
2023-02-01T23:55:10.839Z,3.1
2023-02-01T23:57:11.266Z,3.1
2023-02-01T23:59:12.643Z,3.1
